sensor_id;sensor_type;location;lat;lon;timestamp;temperature;humidity
39019;DHT22;24786;51.984;5.872;2022-11-18T00:02:06;8.90;99.90
39019;DHT22;24786;51.984;5.872;2022-11-18T00:04:32;8.90;99.90
39019;DHT22;24786;51.984;5.872;2022-11-18T00:06:57;9.00;99.90
39019;DHT22;24786;51.984;5.872;2022-11-18T00:09:23;9.00;99.90
39019;DHT22;24786;51.984;5.872;2022-11-18T00:11:48;9.00;99.90
39019;DHT22;24786;51.984;5.872;2022-11-18T00:14:32;9.10;99.90
39019;DHT22;24786;51.984;5.872;2022-11-18T00:17:00;9.00;99.90
39019;DHT22;24786;51.984;5.872;2022-11-18T00:19:28;9.00;99.90
39019;DHT22;24786;51.984;5.872;2022-11-18T00:21:54;8.90;99.90
39019;DHT22;24786;51.984;5.872;2022-11-18T00:24:20;8.90;99.90
39019;DHT22;24786;51.984;5.872;2022-11-18T00:26:46;8.90;99.90
39019;DHT22;24786;51.984;5.872;2022-11-18T00:29:12;8.80;99.90
39019;DHT22;24786;51.984;5.872;2022-11-18T00:31:38;8.80;99.90
39019;DHT22;24786;51.984;5.872;2022-11-18T00:34:05;8.80;99.90
39019;DHT22;24786;51.984;5.872;2022-11-18T00:36:31;8.70;99.90
39019;DHT22;24786;51.984;5.872;2022-11-18T00:38:56;8.70;99.90
39019;DHT22;24786;51.984;5.872;2022-11-18T00:41:22;8.70;99.90
39019;DHT22;24786;51.984;5.872;2022-11-18T00:43:48;8.70;99.90
39019;DHT22;24786;51.984;5.872;2022-11-18T00:46:13;8.70;99.90
39019;DHT22;24786;51.984;5.872;2022-11-18T00:48:39;8.60;99.90
39019;DHT22;24786;51.984;5.872;2022-11-18T00:53:32;8.60;99.90
39019;DHT22;24786;51.984;5.872;2022-11-18T00:55:58;8.60;99.90
39019;DHT22;24786;51.984;5.872;2022-11-18T00:58:23;8.70;99.90
39019;DHT22;24786;51.984;5.872;2022-11-18T01:00:51;8.70;99.90
39019;DHT22;24786;51.984;5.872;2022-11-18T01:03:17;8.70;99.90
39019;DHT22;24786;51.984;5.872;2022-11-18T01:05:43;8.70;99.90
39019;DHT22;24786;51.984;5.872;2022-11-18T01:08:10;8.70;99.90
39019;DHT22;24786;51.984;5.872;2022-11-18T01:10:37;8.70;99.90
39019;DHT22;24786;51.984;5.872;2022-11-18T01:13:04;8.70;99.90
39019;DHT22;24786;51.984;5.872;2022-11-18T01:15:56;8.80;99.90
39019;DHT22;24786;51.984;5.872;2022-11-18T01:18:26;8.80;99.90
39019;DHT22;24786;51.984;5.872;2022-11-18T01:20:53;8.80;99.90
39019;DHT22;24786;51.984;5.872;2022-11-18T01:23:19;8.80;99.90
39019;DHT22;24786;51.984;5.872;2022-11-18T01:25:46;8.80;99.90
39019;DHT22;24786;51.984;5.872;2022-11-18T01:28:12;8.90;99.90
39019;DHT22;24786;51.984;5.872;2022-11-18T01:30:39;8.90;99.90
39019;DHT22;24786;51.984;5.872;2022-11-18T01:33:06;8.80;99.90
39019;DHT22;24786;51.984;5.872;2022-11-18T01:38:01;8.80;99.90
39019;DHT22;24786;51.984;5.872;2022-11-18T01:40:27;8.80;99.90
39019;DHT22;24786;51.984;5.872;2022-11-18T01:42:53;8.80;99.90
39019;DHT22;24786;51.984;5.872;2022-11-18T01:45:36;8.70;99.90
39019;DHT22;24786;51.984;5.872;2022-11-18T01:48:24;8.70;99.90
39019;DHT22;24786;51.984;5.872;2022-11-18T01:51:04;8.70;99.90
39019;DHT22;24786;51.984;5.872;2022-11-18T01:53:32;8.70;99.90
39019;DHT22;24786;51.984;5.872;2022-11-18T01:56:01;8.70;99.90
39019;DHT22;24786;51.984;5.872;2022-11-18T01:58:38;8.60;99.90
39019;DHT22;24786;51.984;5.872;2022-11-18T02:01:06;8.70;99.90
39019;DHT22;24786;51.984;5.872;2022-11-18T02:03:33;8.60;99.90
39019;DHT22;24786;51.984;5.872;2022-11-18T02:05:59;8.60;99.90
39019;DHT22;24786;51.984;5.872;2022-11-18T02:08:27;8.60;99.90
39019;DHT22;24786;51.984;5.872;2022-11-18T02:10:53;8.60;99.90
39019;DHT22;24786;51.984;5.872;2022-11-18T02:13:19;8.60;99.90
39019;DHT22;24786;51.984;5.872;2022-11-18T02:18:46;8.60;99.90
39019;DHT22;24786;51.984;5.872;2022-11-18T02:21:25;8.60;99.90
39019;DHT22;24786;51.984;5.872;2022-11-18T02:24:27;8.60;99.90
39019;DHT22;24786;51.984;5.872;2022-11-18T02:27:04;8.60;99.90
39019;DHT22;24786;51.984;5.872;2022-11-18T02:30:04;8.60;99.90
39019;DHT22;24786;51.984;5.872;2022-11-18T02:32:55;8.60;99.90
39019;DHT22;24786;51.984;5.872;2022-11-18T02:38:22;8.60;99.90
39019;DHT22;24786;51.984;5.872;2022-11-18T02:40:52;8.60;99.90
39019;DHT22;24786;51.984;5.872;2022-11-18T02:43:23;8.60;99.90
39019;DHT22;24786;51.984;5.872;2022-11-18T02:45:54;8.70;99.90
39019;DHT22;24786;51.984;5.872;2022-11-18T02:48:24;8.70;99.90
39019;DHT22;24786;51.984;5.872;2022-11-18T02:50:53;8.70;99.90
39019;DHT22;24786;51.984;5.872;2022-11-18T02:53:20;8.70;99.90
39019;DHT22;24786;51.984;5.872;2022-11-18T02:55:47;8.70;99.90
39019;DHT22;24786;51.984;5.872;2022-11-18T02:58:16;8.70;99.90
39019;DHT22;24786;51.984;5.872;2022-11-18T03:00:43;8.70;99.90
39019;DHT22;24786;51.984;5.872;2022-11-18T03:08:49;8.80;99.90
39019;DHT22;24786;51.984;5.872;2022-11-18T03:11:25;8.80;99.90
39019;DHT22;24786;51.984;5.872;2022-11-18T03:14:05;8.80;99.90
39019;DHT22;24786;51.984;5.872;2022-11-18T03:16:50;8.80;99.90
39019;DHT22;24786;51.984;5.872;2022-11-18T03:24:34;8.90;99.90
39019;DHT22;24786;51.984;5.872;2022-11-18T03:27:16;8.90;99.90
39019;DHT22;24786;51.984;5.872;2022-11-18T03:29:56;8.90;99.90
39019;DHT22;24786;51.984;5.872;2022-11-18T03:32:29;8.90;99.90
39019;DHT22;24786;51.984;5.872;2022-11-18T03:35:02;8.90;99.90
39019;DHT22;24786;51.984;5.872;2022-11-18T03:37:32;9.00;99.90
39019;DHT22;24786;51.984;5.872;2022-11-18T03:40:04;8.90;99.90
39019;DHT22;24786;51.984;5.872;2022-11-18T03:42:34;8.90;99.90
39019;DHT22;24786;51.984;5.872;2022-11-18T03:45:11;8.90;99.90
39019;DHT22;24786;51.984;5.872;2022-11-18T03:47:41;8.90;99.90
39019;DHT22;24786;51.984;5.872;2022-11-18T03:50:15;9.00;99.90
39019;DHT22;24786;51.984;5.872;2022-11-18T03:52:43;8.90;99.90
39019;DHT22;24786;51.984;5.872;2022-11-18T03:55:29;9.00;99.90
39019;DHT22;24786;51.984;5.872;2022-11-18T03:58:12;9.00;99.90
39019;DHT22;24786;51.984;5.872;2022-11-18T04:00:43;9.00;99.90
39019;DHT22;24786;51.984;5.872;2022-11-18T04:03:09;9.00;99.90
39019;DHT22;24786;51.984;5.872;2022-11-18T04:05:39;8.90;99.90
39019;DHT22;24786;51.984;5.872;2022-11-18T04:08:13;8.90;99.90
39019;DHT22;24786;51.984;5.872;2022-11-18T04:11:03;8.90;99.90
39019;DHT22;24786;51.984;5.872;2022-11-18T04:13:33;9.00;99.90
39019;DHT22;24786;51.984;5.872;2022-11-18T04:16:00;8.90;99.90
39019;DHT22;24786;51.984;5.872;2022-11-18T04:18:26;8.90;99.90
39019;DHT22;24786;51.984;5.872;2022-11-18T04:20:52;8.90;99.90
39019;DHT22;24786;51.984;5.872;2022-11-18T04:23:17;8.90;99.90
39019;DHT22;24786;51.984;5.872;2022-11-18T04:25:43;8.90;99.90
39019;DHT22;24786;51.984;5.872;2022-11-18T04:28:09;9.00;99.90
39019;DHT22;24786;51.984;5.872;2022-11-18T04:30:34;9.00;99.90
39019;DHT22;24786;51.984;5.872;2022-11-18T04:33:00;9.00;99.90
39019;DHT22;24786;51.984;5.872;2022-11-18T04:35:25;9.00;99.90
39019;DHT22;24786;51.984;5.872;2022-11-18T04:37:51;9.00;99.90
39019;DHT22;24786;51.984;5.872;2022-11-18T04:40:17;9.00;99.90
39019;DHT22;24786;51.984;5.872;2022-11-18T04:42:43;9.00;99.90
39019;DHT22;24786;51.984;5.872;2022-11-18T04:45:09;9.00;99.90
39019;DHT22;24786;51.984;5.872;2022-11-18T04:47:36;9.00;99.90
39019;DHT22;24786;51.984;5.872;2022-11-18T04:50:02;9.00;99.90
39019;DHT22;24786;51.984;5.872;2022-11-18T04:52:27;9.00;99.90
39019;DHT22;24786;51.984;5.872;2022-11-18T04:54:53;9.00;99.90
39019;DHT22;24786;51.984;5.872;2022-11-18T04:57:19;9.00;99.90
39019;DHT22;24786;51.984;5.872;2022-11-18T04:59:44;9.00;99.90
39019;DHT22;24786;51.984;5.872;2022-11-18T05:02:10;9.00;99.90
39019;DHT22;24786;51.984;5.872;2022-11-18T05:04:35;9.00;99.90
39019;DHT22;24786;51.984;5.872;2022-11-18T05:07:03;9.00;99.90
39019;DHT22;24786;51.984;5.872;2022-11-18T05:09:29;9.00;99.90
39019;DHT22;24786;51.984;5.872;2022-11-18T05:11:54;8.90;99.90
39019;DHT22;24786;51.984;5.872;2022-11-18T05:14:39;8.90;99.90
39019;DHT22;24786;51.984;5.872;2022-11-18T05:17:07;8.90;99.90
39019;DHT22;24786;51.984;5.872;2022-11-18T05:19:33;8.90;99.90
39019;DHT22;24786;51.984;5.872;2022-11-18T05:21:59;8.80;99.90
39019;DHT22;24786;51.984;5.872;2022-11-18T05:24:24;8.80;99.90
39019;DHT22;24786;51.984;5.872;2022-11-18T05:26:51;8.80;99.90
39019;DHT22;24786;51.984;5.872;2022-11-18T05:29:18;8.80;99.90
39019;DHT22;24786;51.984;5.872;2022-11-18T05:31:45;8.90;99.90
39019;DHT22;24786;51.984;5.872;2022-11-18T05:34:11;8.90;99.90
39019;DHT22;24786;51.984;5.872;2022-11-18T05:36:36;8.90;99.90
39019;DHT22;24786;51.984;5.872;2022-11-18T05:39:03;8.90;99.90
39019;DHT22;24786;51.984;5.872;2022-11-18T05:41:28;8.90;99.90
39019;DHT22;24786;51.984;5.872;2022-11-18T05:44:13;8.90;99.90
39019;DHT22;24786;51.984;5.872;2022-11-18T05:46:39;8.90;99.90
39019;DHT22;24786;51.984;5.872;2022-11-18T05:49:04;8.90;99.90
39019;DHT22;24786;51.984;5.872;2022-11-18T05:51:30;8.90;99.90
39019;DHT22;24786;51.984;5.872;2022-11-18T05:53:56;8.80;99.90
39019;DHT22;24786;51.984;5.872;2022-11-18T05:56:32;8.80;99.90
39019;DHT22;24786;51.984;5.872;2022-11-18T05:58:59;8.80;99.90
39019;DHT22;24786;51.984;5.872;2022-11-18T06:03:54;8.80;99.90
39019;DHT22;24786;51.984;5.872;2022-11-18T06:06:21;8.80;99.90
39019;DHT22;24786;51.984;5.872;2022-11-18T06:08:54;8.80;99.90
39019;DHT22;24786;51.984;5.872;2022-11-18T06:11:20;8.70;99.90
39019;DHT22;24786;51.984;5.872;2022-11-18T06:14:11;8.70;99.90
39019;DHT22;24786;51.984;5.872;2022-11-18T06:16:35;8.70;99.90
39019;DHT22;24786;51.984;5.872;2022-11-18T06:19:02;8.60;99.90
39019;DHT22;24786;51.984;5.872;2022-11-18T06:21:29;8.60;99.90
39019;DHT22;24786;51.984;5.872;2022-11-18T06:23:55;8.60;99.90
39019;DHT22;24786;51.984;5.872;2022-11-18T06:26:20;8.60;99.90
39019;DHT22;24786;51.984;5.872;2022-11-18T06:28:46;8.60;99.90
39019;DHT22;24786;51.984;5.872;2022-11-18T06:31:12;8.60;99.90
39019;DHT22;24786;51.984;5.872;2022-11-18T06:33:38;8.50;99.90
39019;DHT22;24786;51.984;5.872;2022-11-18T06:36:04;8.50;99.90
39019;DHT22;24786;51.984;5.872;2022-11-18T06:38:29;8.50;99.90
39019;DHT22;24786;51.984;5.872;2022-11-18T06:40:59;8.40;99.90
39019;DHT22;24786;51.984;5.872;2022-11-18T06:43:27;8.50;99.90
39019;DHT22;24786;51.984;5.872;2022-11-18T06:46:14;8.40;99.90
39019;DHT22;24786;51.984;5.872;2022-11-18T06:48:59;8.40;99.90
39019;DHT22;24786;51.984;5.872;2022-11-18T06:51:26;8.40;99.90
39019;DHT22;24786;51.984;5.872;2022-11-18T06:53:52;8.40;99.90
39019;DHT22;24786;51.984;5.872;2022-11-18T06:56:19;8.40;99.90
39019;DHT22;24786;51.984;5.872;2022-11-18T06:58:45;8.40;99.90
39019;DHT22;24786;51.984;5.872;2022-11-18T07:01:18;8.40;99.90
39019;DHT22;24786;51.984;5.872;2022-11-18T07:03:46;8.40;99.90
39019;DHT22;24786;51.984;5.872;2022-11-18T07:06:14;8.40;99.90
39019;DHT22;24786;51.984;5.872;2022-11-18T07:08:47;8.40;99.90
39019;DHT22;24786;51.984;5.872;2022-11-18T07:11:15;8.30;99.90
39019;DHT22;24786;51.984;5.872;2022-11-18T07:13:44;8.30;99.90
39019;DHT22;24786;51.984;5.872;2022-11-18T07:16:35;8.40;99.90
39019;DHT22;24786;51.984;5.872;2022-11-18T07:19:01;8.30;99.90
39019;DHT22;24786;51.984;5.872;2022-11-18T07:21:32;8.50;99.90
39019;DHT22;24786;51.984;5.872;2022-11-18T07:23:57;8.40;99.90
39019;DHT22;24786;51.984;5.872;2022-11-18T07:26:23;8.40;99.90
39019;DHT22;24786;51.984;5.872;2022-11-18T07:28:49;8.40;99.90
39019;DHT22;24786;51.984;5.872;2022-11-18T07:31:16;8.40;99.90
39019;DHT22;24786;51.984;5.872;2022-11-18T07:33:43;8.40;99.90
39019;DHT22;24786;51.984;5.872;2022-11-18T07:36:17;8.40;99.90
39019;DHT22;24786;51.984;5.872;2022-11-18T07:38:43;8.50;99.90
39019;DHT22;24786;51.984;5.872;2022-11-18T07:41:14;8.50;99.90
39019;DHT22;24786;51.984;5.872;2022-11-18T07:43:41;8.50;99.90
39019;DHT22;24786;51.984;5.872;2022-11-18T07:48:33;8.50;99.90
39019;DHT22;24786;51.984;5.872;2022-11-18T07:51:00;8.50;99.90
39019;DHT22;24786;51.984;5.872;2022-11-18T07:53:25;8.50;99.90
39019;DHT22;24786;51.984;5.872;2022-11-18T07:55:51;8.50;99.90
39019;DHT22;24786;51.984;5.872;2022-11-18T07:58:16;8.50;99.90
39019;DHT22;24786;51.984;5.872;2022-11-18T08:00:42;8.50;99.90
39019;DHT22;24786;51.984;5.872;2022-11-18T08:03:07;8.50;99.90
39019;DHT22;24786;51.984;5.872;2022-11-18T08:05:33;8.50;99.90
39019;DHT22;24786;51.984;5.872;2022-11-18T08:07:58;8.50;99.90
39019;DHT22;24786;51.984;5.872;2022-11-18T08:10:24;8.50;99.90
39019;DHT22;24786;51.984;5.872;2022-11-18T08:12:49;8.50;99.90
39019;DHT22;24786;51.984;5.872;2022-11-18T08:15:15;8.50;99.90
39019;DHT22;24786;51.984;5.872;2022-11-18T08:17:40;8.50;99.90
39019;DHT22;24786;51.984;5.872;2022-11-18T08:20:06;8.60;99.90
39019;DHT22;24786;51.984;5.872;2022-11-18T08:22:32;8.60;99.90
39019;DHT22;24786;51.984;5.872;2022-11-18T08:24:58;8.60;99.90
39019;DHT22;24786;51.984;5.872;2022-11-18T08:27:23;8.70;99.90
39019;DHT22;24786;51.984;5.872;2022-11-18T08:29:49;8.70;99.90
39019;DHT22;24786;51.984;5.872;2022-11-18T08:32:14;8.70;99.90
39019;DHT22;24786;51.984;5.872;2022-11-18T08:34:40;8.70;99.90
39019;DHT22;24786;51.984;5.872;2022-11-18T08:37:05;8.70;99.90
39019;DHT22;24786;51.984;5.872;2022-11-18T08:39:31;8.80;99.90
39019;DHT22;24786;51.984;5.872;2022-11-18T08:41:57;8.80;99.90
39019;DHT22;24786;51.984;5.872;2022-11-18T08:44:22;8.80;99.90
39019;DHT22;24786;51.984;5.872;2022-11-18T08:46:48;8.80;99.90
39019;DHT22;24786;51.984;5.872;2022-11-18T08:49:14;8.80;99.90
39019;DHT22;24786;51.984;5.872;2022-11-18T08:51:39;8.80;99.90
39019;DHT22;24786;51.984;5.872;2022-11-18T08:54:05;8.80;99.90
39019;DHT22;24786;51.984;5.872;2022-11-18T08:56:31;8.80;99.90
39019;DHT22;24786;51.984;5.872;2022-11-18T08:59:19;8.80;99.90
39019;DHT22;24786;51.984;5.872;2022-11-18T09:01:47;8.90;99.90
39019;DHT22;24786;51.984;5.872;2022-11-18T09:04:13;8.90;99.90
39019;DHT22;24786;51.984;5.872;2022-11-18T09:06:38;9.00;99.90
39019;DHT22;24786;51.984;5.872;2022-11-18T09:09:05;9.00;99.90
39019;DHT22;24786;51.984;5.872;2022-11-18T09:11:31;9.00;99.90
39019;DHT22;24786;51.984;5.872;2022-11-18T09:13:58;9.10;99.90
39019;DHT22;24786;51.984;5.872;2022-11-18T09:16:25;9.10;99.90
39019;DHT22;24786;51.984;5.872;2022-11-18T09:18:52;9.20;99.90
39019;DHT22;24786;51.984;5.872;2022-11-18T09:21:18;9.20;99.90
39019;DHT22;24786;51.984;5.872;2022-11-18T09:23:43;9.40;99.90
39019;DHT22;24786;51.984;5.872;2022-11-18T09:26:14;9.40;99.90
39019;DHT22;24786;51.984;5.872;2022-11-18T09:28:41;9.40;99.90
39019;DHT22;24786;51.984;5.872;2022-11-18T09:33:34;9.50;99.90
39019;DHT22;24786;51.984;5.872;2022-11-18T09:35:59;9.50;99.90
39019;DHT22;24786;51.984;5.872;2022-11-18T09:38:27;9.50;99.90
39019;DHT22;24786;51.984;5.872;2022-11-18T09:49:26;9.50;99.90
39019;DHT22;24786;51.984;5.872;2022-11-18T09:51:53;9.50;99.90
39019;DHT22;24786;51.984;5.872;2022-11-18T09:54:29;9.50;99.90
39019;DHT22;24786;51.984;5.872;2022-11-18T09:57:22;9.60;99.90
39019;DHT22;24786;51.984;5.872;2022-11-18T09:59:48;9.50;99.90
39019;DHT22;24786;51.984;5.872;2022-11-18T10:02:54;9.60;99.90
39019;DHT22;24786;51.984;5.872;2022-11-18T10:05:24;9.50;99.90
39019;DHT22;24786;51.984;5.872;2022-11-18T10:13:51;9.50;99.90
39019;DHT22;24786;51.984;5.872;2022-11-18T10:16:31;9.40;99.90
39019;DHT22;24786;51.984;5.872;2022-11-18T10:19:21;9.50;99.90
39019;DHT22;24786;51.984;5.872;2022-11-18T10:22:28;9.50;99.90
39019;DHT22;24786;51.984;5.872;2022-11-18T10:24:56;9.40;99.90
39019;DHT22;24786;51.984;5.872;2022-11-18T10:27:25;9.40;99.90
39019;DHT22;24786;51.984;5.872;2022-11-18T10:29:52;9.40;99.90
39019;DHT22;24786;51.984;5.872;2022-11-18T10:32:20;9.50;99.90
39019;DHT22;24786;51.984;5.872;2022-11-18T10:34:48;9.40;99.90
39019;DHT22;24786;51.984;5.872;2022-11-18T10:37:32;9.40;99.90
39019;DHT22;24786;51.984;5.872;2022-11-18T10:40:00;9.40;99.90
39019;DHT22;24786;51.984;5.872;2022-11-18T10:42:40;9.40;99.90
39019;DHT22;24786;51.984;5.872;2022-11-18T10:50:46;9.40;99.90
39019;DHT22;24786;51.984;5.872;2022-11-18T10:53:34;9.40;99.90
39019;DHT22;24786;51.984;5.872;2022-11-18T10:56:09;9.50;99.90
39019;DHT22;24786;51.984;5.872;2022-11-18T10:58:40;9.50;99.90
39019;DHT22;24786;51.984;5.872;2022-11-18T11:01:22;9.50;99.90
39019;DHT22;24786;51.984;5.872;2022-11-18T11:04:15;9.60;99.90
39019;DHT22;24786;51.984;5.872;2022-11-18T11:06:44;9.50;99.90
39019;DHT22;24786;51.984;5.872;2022-11-18T11:09:30;9.50;99.90
39019;DHT22;24786;51.984;5.872;2022-11-18T11:12:10;9.60;99.90
39019;DHT22;24786;51.984;5.872;2022-11-18T11:14:56;9.70;99.90
39019;DHT22;24786;51.984;5.872;2022-11-18T11:17:28;9.80;99.90
39019;DHT22;24786;51.984;5.872;2022-11-18T11:22:39;10.00;99.90
39019;DHT22;24786;51.984;5.872;2022-11-18T11:25:18;10.00;99.90
39019;DHT22;24786;51.984;5.872;2022-11-18T11:27:53;10.10;99.90
39019;DHT22;24786;51.984;5.872;2022-11-18T11:30:23;10.10;99.90
39019;DHT22;24786;51.984;5.872;2022-11-18T11:35:24;10.20;99.90
39019;DHT22;24786;51.984;5.872;2022-11-18T11:37:59;10.30;99.90
39019;DHT22;24786;51.984;5.872;2022-11-18T11:40:34;10.40;99.90
39019;DHT22;24786;51.984;5.872;2022-11-18T11:52:14;10.50;99.90
39019;DHT22;24786;51.984;5.872;2022-11-18T11:55:00;10.60;99.90
39019;DHT22;24786;51.984;5.872;2022-11-18T11:57:54;10.60;99.90
39019;DHT22;24786;51.984;5.872;2022-11-18T12:00:23;10.50;99.90
39019;DHT22;24786;51.984;5.872;2022-11-18T12:03:17;10.40;99.90
39019;DHT22;24786;51.984;5.872;2022-11-18T12:05:48;10.40;99.90
39019;DHT22;24786;51.984;5.872;2022-11-18T12:08:26;10.40;99.90
39019;DHT22;24786;51.984;5.872;2022-11-18T12:11:05;10.40;99.90
39019;DHT22;24786;51.984;5.872;2022-11-18T12:14:00;10.40;99.90
39019;DHT22;24786;51.984;5.872;2022-11-18T12:16:39;10.30;99.90
39019;DHT22;24786;51.984;5.872;2022-11-18T12:19:14;10.50;99.90
39019;DHT22;24786;51.984;5.872;2022-11-18T12:24:30;10.40;99.90
39019;DHT22;24786;51.984;5.872;2022-11-18T12:26:58;10.50;99.90
39019;DHT22;24786;51.984;5.872;2022-11-18T12:29:34;10.40;99.90
39019;DHT22;24786;51.984;5.872;2022-11-18T12:32:01;10.50;99.90
39019;DHT22;24786;51.984;5.872;2022-11-18T12:34:40;10.50;99.90
39019;DHT22;24786;51.984;5.872;2022-11-18T12:37:45;10.60;99.90
39019;DHT22;24786;51.984;5.872;2022-11-18T12:40:35;10.70;99.90
39019;DHT22;24786;51.984;5.872;2022-11-18T12:43:02;10.80;99.90
39019;DHT22;24786;51.984;5.872;2022-11-18T12:45:50;10.80;99.90
39019;DHT22;24786;51.984;5.872;2022-11-18T12:48:35;10.90;99.90
39019;DHT22;24786;51.984;5.872;2022-11-18T12:53:41;10.90;99.90
39019;DHT22;24786;51.984;5.872;2022-11-18T12:58:45;10.90;99.90
39019;DHT22;24786;51.984;5.872;2022-11-18T13:01:13;10.90;99.90
39019;DHT22;24786;51.984;5.872;2022-11-18T13:03:40;11.00;99.90
39019;DHT22;24786;51.984;5.872;2022-11-18T13:06:29;11.00;99.90
39019;DHT22;24786;51.984;5.872;2022-11-18T13:09:22;11.00;99.90
39019;DHT22;24786;51.984;5.872;2022-11-18T13:11:57;11.00;99.90
39019;DHT22;24786;51.984;5.872;2022-11-18T13:14:37;11.00;99.90
39019;DHT22;24786;51.984;5.872;2022-11-18T13:20:37;10.90;99.90
39019;DHT22;24786;51.984;5.872;2022-11-18T13:25:54;10.80;99.90
39019;DHT22;24786;51.984;5.872;2022-11-18T13:34:20;10.80;99.90
39019;DHT22;24786;51.984;5.872;2022-11-18T13:36:47;10.80;99.90
39019;DHT22;24786;51.984;5.872;2022-11-18T13:39:29;10.80;99.90
39019;DHT22;24786;51.984;5.872;2022-11-18T13:42:12;10.80;99.90
39019;DHT22;24786;51.984;5.872;2022-11-18T13:44:38;10.90;99.90
39019;DHT22;24786;51.984;5.872;2022-11-18T13:47:22;10.90;99.90
39019;DHT22;24786;51.984;5.872;2022-11-18T13:52:45;10.90;99.90
39019;DHT22;24786;51.984;5.872;2022-11-18T13:55:27;11.00;99.90
39019;DHT22;24786;51.984;5.872;2022-11-18T14:00:42;11.00;99.90
39019;DHT22;24786;51.984;5.872;2022-11-18T14:03:25;11.00;99.90
39019;DHT22;24786;51.984;5.872;2022-11-18T14:05:53;11.00;99.90
39019;DHT22;24786;51.984;5.872;2022-11-18T14:08:34;10.90;99.90
39019;DHT22;24786;51.984;5.872;2022-11-18T14:11:01;11.00;99.90
39019;DHT22;24786;51.984;5.872;2022-11-18T14:16:03;11.00;99.90
39019;DHT22;24786;51.984;5.872;2022-11-18T14:18:49;11.00;99.90
39019;DHT22;24786;51.984;5.872;2022-11-18T14:21:26;10.90;99.90
39019;DHT22;24786;51.984;5.872;2022-11-18T14:23:53;10.90;99.90
39019;DHT22;24786;51.984;5.872;2022-11-18T14:26:30;10.90;99.90
39019;DHT22;24786;51.984;5.872;2022-11-18T14:29:12;10.80;99.90
39019;DHT22;24786;51.984;5.872;2022-11-18T14:31:39;10.80;99.90
39019;DHT22;24786;51.984;5.872;2022-11-18T14:34:24;10.80;99.90
39019;DHT22;24786;51.984;5.872;2022-11-18T14:36:51;10.90;99.90
39019;DHT22;24786;51.984;5.872;2022-11-18T14:39:28;10.80;99.90
39019;DHT22;24786;51.984;5.872;2022-11-18T14:41:55;10.80;99.90
39019;DHT22;24786;51.984;5.872;2022-11-18T14:44:23;10.90;99.90
39019;DHT22;24786;51.984;5.872;2022-11-18T14:46:51;10.90;99.90
39019;DHT22;24786;51.984;5.872;2022-11-18T14:49:19;10.90;99.90
39019;DHT22;24786;51.984;5.872;2022-11-18T14:51:46;10.90;99.90
39019;DHT22;24786;51.984;5.872;2022-11-18T14:54:16;10.80;99.90
39019;DHT22;24786;51.984;5.872;2022-11-18T14:56:43;10.80;99.90
39019;DHT22;24786;51.984;5.872;2022-11-18T14:59:11;10.70;99.90
39019;DHT22;24786;51.984;5.872;2022-11-18T15:01:37;10.70;99.90
39019;DHT22;24786;51.984;5.872;2022-11-18T15:04:03;10.70;99.90
39019;DHT22;24786;51.984;5.872;2022-11-18T15:06:29;10.60;99.90
39019;DHT22;24786;51.984;5.872;2022-11-18T15:08:54;10.50;99.90
39019;DHT22;24786;51.984;5.872;2022-11-18T15:11:20;10.40;99.90
39019;DHT22;24786;51.984;5.872;2022-11-18T15:13:46;10.40;99.90
39019;DHT22;24786;51.984;5.872;2022-11-18T15:18:39;10.20;99.90
39019;DHT22;24786;51.984;5.872;2022-11-18T15:21:04;10.20;99.90
39019;DHT22;24786;51.984;5.872;2022-11-18T15:23:30;10.10;99.90
39019;DHT22;24786;51.984;5.872;2022-11-18T15:25:55;10.10;99.90
39019;DHT22;24786;51.984;5.872;2022-11-18T15:28:21;10.10;99.90
39019;DHT22;24786;51.984;5.872;2022-11-18T15:30:47;10.00;99.90
39019;DHT22;24786;51.984;5.872;2022-11-18T15:33:12;10.00;99.90
39019;DHT22;24786;51.984;5.872;2022-11-18T15:35:38;10.00;99.90
39019;DHT22;24786;51.984;5.872;2022-11-18T15:38:04;10.00;99.90
39019;DHT22;24786;51.984;5.872;2022-11-18T15:40:30;9.90;99.90
39019;DHT22;24786;51.984;5.872;2022-11-18T15:42:56;9.90;99.90
39019;DHT22;24786;51.984;5.872;2022-11-18T15:45:21;9.80;99.90
39019;DHT22;24786;51.984;5.872;2022-11-18T15:47:47;9.80;99.90
39019;DHT22;24786;51.984;5.872;2022-11-18T15:50:12;9.70;99.90
39019;DHT22;24786;51.984;5.872;2022-11-18T15:52:38;9.70;99.90
39019;DHT22;24786;51.984;5.872;2022-11-18T15:55:04;9.60;99.90
39019;DHT22;24786;51.984;5.872;2022-11-18T15:57:29;9.50;99.90
39019;DHT22;24786;51.984;5.872;2022-11-18T15:59:55;9.40;99.90
39019;DHT22;24786;51.984;5.872;2022-11-18T16:02:20;9.40;99.90
39019;DHT22;24786;51.984;5.872;2022-11-18T16:04:46;9.30;99.90
39019;DHT22;24786;51.984;5.872;2022-11-18T16:07:11;9.20;99.90
39019;DHT22;24786;51.984;5.872;2022-11-18T16:09:37;9.20;99.90
39019;DHT22;24786;51.984;5.872;2022-11-18T16:12:21;9.20;99.90
39019;DHT22;24786;51.984;5.872;2022-11-18T16:15:05;9.10;99.90
39019;DHT22;24786;51.984;5.872;2022-11-18T16:17:49;9.10;99.90
39019;DHT22;24786;51.984;5.872;2022-11-18T16:20:15;9.00;99.90
39019;DHT22;24786;51.984;5.872;2022-11-18T16:22:41;9.00;99.90
39019;DHT22;24786;51.984;5.872;2022-11-18T16:25:07;8.90;99.90
39019;DHT22;24786;51.984;5.872;2022-11-18T16:27:34;8.90;99.90
39019;DHT22;24786;51.984;5.872;2022-11-18T16:30:02;8.90;99.90
39019;DHT22;24786;51.984;5.872;2022-11-18T16:32:29;8.80;99.90
39019;DHT22;24786;51.984;5.872;2022-11-18T16:34:55;8.80;99.90
39019;DHT22;24786;51.984;5.872;2022-11-18T16:37:22;8.80;99.90
39019;DHT22;24786;51.984;5.872;2022-11-18T16:39:47;8.80;99.90
39019;DHT22;24786;51.984;5.872;2022-11-18T16:42:13;8.80;99.90
39019;DHT22;24786;51.984;5.872;2022-11-18T16:44:38;8.90;99.90
39019;DHT22;24786;51.984;5.872;2022-11-18T16:47:05;8.70;99.90
39019;DHT22;24786;51.984;5.872;2022-11-18T16:49:31;8.80;99.90
39019;DHT22;24786;51.984;5.872;2022-11-18T16:51:57;8.70;99.90
39019;DHT22;24786;51.984;5.872;2022-11-18T16:54:24;8.80;99.90
39019;DHT22;24786;51.984;5.872;2022-11-18T17:00:03;8.70;99.90
39019;DHT22;24786;51.984;5.872;2022-11-18T17:02:29;8.70;99.90
39019;DHT22;24786;51.984;5.872;2022-11-18T17:04:55;8.80;99.90
39019;DHT22;24786;51.984;5.872;2022-11-18T17:07:20;8.70;99.90
39019;DHT22;24786;51.984;5.872;2022-11-18T17:09:46;8.70;99.90
39019;DHT22;24786;51.984;5.872;2022-11-18T17:12:11;8.70;99.90
39019;DHT22;24786;51.984;5.872;2022-11-18T17:14:37;8.70;99.90
39019;DHT22;24786;51.984;5.872;2022-11-18T17:17:04;8.80;99.90
39019;DHT22;24786;51.984;5.872;2022-11-18T17:19:30;8.80;99.90
39019;DHT22;24786;51.984;5.872;2022-11-18T17:21:56;8.80;99.90
39019;DHT22;24786;51.984;5.872;2022-11-18T17:24:23;8.90;99.90
39019;DHT22;24786;51.984;5.872;2022-11-18T17:26:50;8.90;99.90
39019;DHT22;24786;51.984;5.872;2022-11-18T17:29:16;8.90;99.90
39019;DHT22;24786;51.984;5.872;2022-11-18T17:31:42;8.90;99.90
39019;DHT22;24786;51.984;5.872;2022-11-18T17:34:10;9.00;99.90
39019;DHT22;24786;51.984;5.872;2022-11-18T17:36:36;9.00;99.90
39019;DHT22;24786;51.984;5.872;2022-11-18T17:39:02;9.10;99.90
39019;DHT22;24786;51.984;5.872;2022-11-18T17:41:28;9.10;99.90